KFCH/FCH METAR and TAF weather

Enter ICAO airport designator
Station Type Date Time Source
KFCH METAR 2019/02/21 00:15 UTC NOAA

KFCH 210015Z AUTO 19004KT 10SM SCT060 10/03 A2979 RMK A01


Station Type Date Time Source
KFCH Decoded METAR 2019/02/21 00:15 UTC NOAA

Fresno-Chandler, CA, United States (KFCH) 36-44N 119-49W
Feb 20, 2019 - 07:15 PM EST / 2019.02.21 0015 UTC
Wind: from the S (190 degrees) at 5 MPH (4 KT):0
Visibility: 10 mile(s):0
Sky conditions: partly cloudy
Temperature: 50 F (10 C)
Dew Point: 37 F (3 C)
Relative Humidity: 61%
Pressure (altimeter): 29.79 in. Hg (1008 hPa)
ob: KFCH 210015Z AUTO 19004KT 10SM SCT060 10/03 A2979 RMK A01
cycle: 0

Station Type Date Time Source
KFCH TAF UTC NOAA

Error!


Example: see airport list